sensor_id;sensor_type;location;lat;lon;timestamp;pressure;altitude;pressure_sealevel;temperature;humidity
64668;BME280;51077;42.716;23.344;2023-07-22T00:00:13;95272.84;;;26.96;43.69
64668;BME280;51077;42.716;23.344;2023-07-22T00:02:41;95275.75;;;26.98;43.32
64668;BME280;51077;42.716;23.344;2023-07-22T00:05:07;95284.31;;;27.00;43.43
64668;BME280;51077;42.716;23.344;2023-07-22T00:07:32;95289.22;;;26.99;43.81
64668;BME280;51077;42.716;23.344;2023-07-22T00:09:59;95294.09;;;26.99;43.55
64668;BME280;51077;42.716;23.344;2023-07-22T00:12:25;95297.53;;;26.97;43.90
64668;BME280;51077;42.716;23.344;2023-07-22T00:14:52;95296.69;;;26.95;44.47
64668;BME280;51077;42.716;23.344;2023-07-22T00:17:18;95298.69;;;26.92;44.29
64668;BME280;51077;42.716;23.344;2023-07-22T00:19:46;95297.97;;;26.92;44.53
64668;BME280;51077;42.716;23.344;2023-07-22T00:22:13;95293.69;;;26.91;44.65
64668;BME280;51077;42.716;23.344;2023-07-22T00:24:40;95294.28;;;26.89;44.73
64668;BME280;51077;42.716;23.344;2023-07-22T00:27:05;95299.84;;;26.87;45.35
64668;BME280;51077;42.716;23.344;2023-07-22T00:29:34;95297.00;;;26.87;45.05
64668;BME280;51077;42.716;23.344;2023-07-22T00:31:59;95293.34;;;26.85;45.22
64668;BME280;51077;42.716;23.344;2023-07-22T00:34:24;95299.38;;;26.79;45.73
64668;BME280;51077;42.716;23.344;2023-07-22T00:36:50;95296.44;;;26.77;45.67
64668;BME280;51077;42.716;23.344;2023-07-22T00:39:15;95296.44;;;26.77;45.32
64668;BME280;51077;42.716;23.344;2023-07-22T00:41:41;95304.66;;;26.73;46.15
64668;BME280;51077;42.716;23.344;2023-07-22T00:44:10;95291.22;;;26.71;46.01
64668;BME280;51077;42.716;23.344;2023-07-22T00:46:36;95306.44;;;26.66;46.39
64668;BME280;51077;42.716;23.344;2023-07-22T00:49:02;95307.78;;;26.65;46.38
64668;BME280;51077;42.716;23.344;2023-07-22T00:51:27;95314.03;;;26.64;46.46
64668;BME280;51077;42.716;23.344;2023-07-22T00:53:53;95316.75;;;26.62;46.92
64668;BME280;51077;42.716;23.344;2023-07-22T00:56:19;95323.50;;;26.56;46.74
64668;BME280;51077;42.716;23.344;2023-07-22T00:58:45;95311.63;;;26.58;47.05
64668;BME280;51077;42.716;23.344;2023-07-22T01:01:10;95303.56;;;26.52;47.18
64668;BME280;51077;42.716;23.344;2023-07-22T01:03:36;95310.66;;;26.53;46.87
64668;BME280;51077;42.716;23.344;2023-07-22T01:06:02;95299.19;;;26.49;47.26
64668;BME280;51077;42.716;23.344;2023-07-22T01:08:27;95301.88;;;26.47;47.61
64668;BME280;51077;42.716;23.344;2023-07-22T01:10:53;95297.59;;;26.46;47.49
64668;BME280;51077;42.716;23.344;2023-07-22T01:13:19;95291.88;;;26.44;47.39
64668;BME280;51077;42.716;23.344;2023-07-22T01:15:45;95287.44;;;26.41;47.66
64668;BME280;51077;42.716;23.344;2023-07-22T01:18:11;95291.38;;;26.36;47.83
64668;BME280;51077;42.716;23.344;2023-07-22T01:20:36;95292.50;;;26.31;48.09
64668;BME280;51077;42.716;23.344;2023-07-22T01:23:02;95298.13;;;26.31;48.23
64668;BME280;51077;42.716;23.344;2023-07-22T01:25:28;95293.00;;;26.27;48.44
64668;BME280;51077;42.716;23.344;2023-07-22T01:27:53;95296.31;;;26.24;48.44
64668;BME280;51077;42.716;23.344;2023-07-22T01:30:19;95287.06;;;26.21;48.60
64668;BME280;51077;42.716;23.344;2023-07-22T01:32:45;95284.59;;;26.16;48.63
64668;BME280;51077;42.716;23.344;2023-07-22T01:35:11;95283.78;;;26.13;48.79
64668;BME280;51077;42.716;23.344;2023-07-22T01:37:37;95282.91;;;26.11;48.83
64668;BME280;51077;42.716;23.344;2023-07-22T01:40:02;95280.00;;;26.09;48.85
64668;BME280;51077;42.716;23.344;2023-07-22T01:42:41;95288.31;;;26.06;48.88
64668;BME280;51077;42.716;23.344;2023-07-22T01:45:08;95288.22;;;26.04;48.92
64668;BME280;51077;42.716;23.344;2023-07-22T01:47:34;95286.00;;;26.03;49.02
64668;BME280;51077;42.716;23.344;2023-07-22T01:50:01;95275.38;;;26.01;49.12
64668;BME280;51077;42.716;23.344;2023-07-22T01:52:27;95273.28;;;26.02;49.15
64668;BME280;51077;42.716;23.344;2023-07-22T01:54:52;95277.44;;;26.01;49.19
64668;BME280;51077;42.716;23.344;2023-07-22T01:57:17;95270.25;;;25.98;49.46
64668;BME280;51077;42.716;23.344;2023-07-22T01:59:43;95263.16;;;25.97;49.19
64668;BME280;51077;42.716;23.344;2023-07-22T02:02:08;95259.50;;;25.94;49.36
64668;BME280;51077;42.716;23.344;2023-07-22T02:04:34;95262.19;;;25.92;49.42
64668;BME280;51077;42.716;23.344;2023-07-22T02:06:59;95269.03;;;25.89;49.79
64668;BME280;51077;42.716;23.344;2023-07-22T02:09:25;95263.31;;;25.87;49.60
64668;BME280;51077;42.716;23.344;2023-07-22T02:11:50;95284.94;;;25.85;49.76
64668;BME280;51077;42.716;23.344;2023-07-22T02:14:15;95277.16;;;25.83;50.00
64668;BME280;51077;42.716;23.344;2023-07-22T02:16:41;95274.19;;;25.81;50.05
64668;BME280;51077;42.716;23.344;2023-07-22T02:19:06;95272.75;;;25.80;49.94
64668;BME280;51077;42.716;23.344;2023-07-22T02:21:31;95274.72;;;25.77;49.90
64668;BME280;51077;42.716;23.344;2023-07-22T02:23:57;95278.84;;;25.76;50.28
64668;BME280;51077;42.716;23.344;2023-07-22T02:26:23;95282.28;;;25.75;50.07
64668;BME280;51077;42.716;23.344;2023-07-22T02:28:49;95283.50;;;25.72;50.41
64668;BME280;51077;42.716;23.344;2023-07-22T02:31:14;95283.38;;;25.70;50.62
64668;BME280;51077;42.716;23.344;2023-07-22T02:33:39;95286.69;;;25.66;50.64
64668;BME280;51077;42.716;23.344;2023-07-22T02:36:06;95289.38;;;25.64;50.74
64668;BME280;51077;42.716;23.344;2023-07-22T02:38:31;95288.53;;;25.62;50.65
64668;BME280;51077;42.716;23.344;2023-07-22T02:41:04;95287.66;;;25.59;50.67
64668;BME280;51077;42.716;23.344;2023-07-22T02:43:32;95284.03;;;25.56;51.04
64668;BME280;51077;42.716;23.344;2023-07-22T02:46:00;95281.81;;;25.55;50.85
64668;BME280;51077;42.716;23.344;2023-07-22T02:48:26;95279.50;;;25.51;51.38
64668;BME280;51077;42.716;23.344;2023-07-22T02:50:51;95280.84;;;25.50;51.09
64668;BME280;51077;42.716;23.344;2023-07-22T02:53:16;95284.28;;;25.49;51.49
64668;BME280;51077;42.716;23.344;2023-07-22T02:55:42;95291.84;;;25.46;51.39
64668;BME280;51077;42.716;23.344;2023-07-22T02:58:07;95296.00;;;25.45;51.59
64668;BME280;51077;42.716;23.344;2023-07-22T03:00:32;95298.69;;;25.43;51.68
64668;BME280;51077;42.716;23.344;2023-07-22T03:02:58;95296.47;;;25.42;51.74
64668;BME280;51077;42.716;23.344;2023-07-22T03:05:29;95295.66;;;25.39;51.91
64668;BME280;51077;42.716;23.344;2023-07-22T03:07:55;95292.09;;;25.39;51.95
64668;BME280;51077;42.716;23.344;2023-07-22T03:10:20;95290.63;;;25.38;52.11
64668;BME280;51077;42.716;23.344;2023-07-22T03:12:47;95300.41;;;25.37;52.15
64668;BME280;51077;42.716;23.344;2023-07-22T03:15:12;95290.50;;;25.36;52.09
64668;BME280;51077;42.716;23.344;2023-07-22T03:17:39;95296.13;;;25.36;52.04
64668;BME280;51077;42.716;23.344;2023-07-22T03:20:07;95295.41;;;25.35;52.39
64668;BME280;51077;42.716;23.344;2023-07-22T03:22:38;95300.16;;;25.32;52.27
64668;BME280;51077;42.716;23.344;2023-07-22T03:25:04;95304.22;;;25.29;52.35
64668;BME280;51077;42.716;23.344;2023-07-22T03:27:33;95297.81;;;25.29;52.05
64668;BME280;51077;42.716;23.344;2023-07-22T03:29:58;95309.69;;;25.27;52.06
64668;BME280;51077;42.716;23.344;2023-07-22T03:32:24;95318.84;;;25.28;51.71
64668;BME280;51077;42.716;23.344;2023-07-22T03:34:49;95321.53;;;25.26;51.75
64668;BME280;51077;42.716;23.344;2023-07-22T03:37:14;95322.13;;;25.24;51.49
64668;BME280;51077;42.716;23.344;2023-07-22T03:39:40;95327.50;;;25.20;51.55
64668;BME280;51077;42.716;23.344;2023-07-22T03:42:05;95331.56;;;25.17;51.21
64668;BME280;51077;42.716;23.344;2023-07-22T03:44:31;95330.81;;;25.17;51.31
64668;BME280;51077;42.716;23.344;2023-07-22T03:46:56;95331.56;;;25.17;51.29
64668;BME280;51077;42.716;23.344;2023-07-22T03:49:21;95331.66;;;25.19;51.12
64668;BME280;51077;42.716;23.344;2023-07-22T03:51:47;95336.56;;;25.19;51.20
64668;BME280;51077;42.716;23.344;2023-07-22T03:54:12;95334.38;;;25.17;51.31
64668;BME280;51077;42.716;23.344;2023-07-22T03:56:40;95340.72;;;25.18;51.04
64668;BME280;51077;42.716;23.344;2023-07-22T03:59:06;95347.06;;;25.18;51.03
64668;BME280;51077;42.716;23.344;2023-07-22T04:01:31;95346.31;;;25.18;51.03
64668;BME280;51077;42.716;23.344;2023-07-22T04:03:57;95351.47;;;25.21;50.70
64668;BME280;51077;42.716;23.344;2023-07-22T04:06:22;95350.97;;;25.25;50.84
64668;BME280;51077;42.716;23.344;2023-07-22T04:08:47;95347.66;;;25.28;50.83
64668;BME280;51077;42.716;23.344;2023-07-22T04:11:13;95351.34;;;25.31;50.67
64668;BME280;51077;42.716;23.344;2023-07-22T04:13:39;95349.38;;;25.33;50.51
64668;BME280;51077;42.716;23.344;2023-07-22T04:16:04;95345.25;;;25.35;50.59
64668;BME280;51077;42.716;23.344;2023-07-22T04:18:30;95343.16;;;25.35;50.68
64668;BME280;51077;42.716;23.344;2023-07-22T04:21:00;95347.56;;;25.38;50.52
64668;BME280;51077;42.716;23.344;2023-07-22T04:23:26;95349.28;;;25.43;50.50
64668;BME280;51077;42.716;23.344;2023-07-22T04:25:52;95345.22;;;25.46;50.32
64668;BME280;51077;42.716;23.344;2023-07-22T04:28:18;95353.06;;;25.48;50.08
64668;BME280;51077;42.716;23.344;2023-07-22T04:30:54;95356.84;;;25.52;50.21
64668;BME280;51077;42.716;23.344;2023-07-22T04:33:20;95363.31;;;25.55;49.97
64668;BME280;51077;42.716;23.344;2023-07-22T04:35:45;95365.03;;;25.60;50.07
64668;BME280;51077;42.716;23.344;2023-07-22T04:38:11;95364.66;;;25.66;50.07
64668;BME280;51077;42.716;23.344;2023-07-22T04:40:36;95372.72;;;25.71;49.86
64668;BME280;51077;42.716;23.344;2023-07-22T04:43:02;95372.38;;;25.77;49.85
64668;BME280;51077;42.716;23.344;2023-07-22T04:45:28;95368.47;;;25.82;49.52
64668;BME280;51077;42.716;23.344;2023-07-22T04:47:53;95367.47;;;25.89;49.69
64668;BME280;51077;42.716;23.344;2023-07-22T04:50:19;95358.66;;;25.95;49.39
64668;BME280;51077;42.716;23.344;2023-07-22T04:52:46;95359.00;;;26.01;49.24
64668;BME280;51077;42.716;23.344;2023-07-22T04:55:13;95360.84;;;26.08;49.62
64668;BME280;51077;42.716;23.344;2023-07-22T04:57:39;95366.09;;;26.14;49.05
64668;BME280;51077;42.716;23.344;2023-07-22T05:00:07;95370.59;;;26.19;49.31
64668;BME280;51077;42.716;23.344;2023-07-22T05:02:34;95369.47;;;26.24;48.99
64668;BME280;51077;42.716;23.344;2023-07-22T05:05:00;95377.53;;;26.29;48.84
64668;BME280;51077;42.716;23.344;2023-07-22T05:07:25;95387.06;;;26.36;48.94
64668;BME280;51077;42.716;23.344;2023-07-22T05:09:51;95385.34;;;26.43;49.04
64668;BME280;51077;42.716;23.344;2023-07-22T05:12:17;95379.34;;;26.48;49.29
64668;BME280;51077;42.716;23.344;2023-07-22T05:14:44;95377.81;;;26.59;49.22
64668;BME280;51077;42.716;23.344;2023-07-22T05:17:09;95383.31;;;26.69;48.91
64668;BME280;51077;42.716;23.344;2023-07-22T05:19:34;95380.81;;;26.75;48.76
64668;BME280;51077;42.716;23.344;2023-07-22T05:22:00;95381.28;;;26.83;48.79
64668;BME280;51077;42.716;23.344;2023-07-22T05:24:25;95380.38;;;26.92;48.63
64668;BME280;51077;42.716;23.344;2023-07-22T05:26:50;95385.00;;;26.99;48.86
64668;BME280;51077;42.716;23.344;2023-07-22T05:29:16;95387.03;;;27.11;48.68
64668;BME280;51077;42.716;23.344;2023-07-22T05:31:42;95384.66;;;27.19;48.57
64668;BME280;51077;42.716;23.344;2023-07-22T05:34:07;95380.19;;;27.27;48.33
64668;BME280;51077;42.716;23.344;2023-07-22T05:36:32;95393.47;;;27.39;48.00
64668;BME280;51077;42.716;23.344;2023-07-22T05:38:58;95393.16;;;27.46;48.14
64668;BME280;51077;42.716;23.344;2023-07-22T05:41:23;95393.72;;;27.56;47.97
64668;BME280;51077;42.716;23.344;2023-07-22T05:43:49;95390.69;;;27.66;47.83
64668;BME280;51077;42.716;23.344;2023-07-22T05:46:14;95393.31;;;27.76;47.99
64668;BME280;51077;42.716;23.344;2023-07-22T05:48:39;95389.47;;;27.83;48.01
64668;BME280;51077;42.716;23.344;2023-07-22T05:51:05;95387.16;;;27.93;47.82
64668;BME280;51077;42.716;23.344;2023-07-22T05:53:32;95387.66;;;28.03;47.71
64668;BME280;51077;42.716;23.344;2023-07-22T05:55:58;95387.47;;;28.13;47.63
64668;BME280;51077;42.716;23.344;2023-07-22T05:58:23;95385.78;;;28.22;47.59
64668;BME280;51077;42.716;23.344;2023-07-22T06:00:49;95386.19;;;28.30;47.31
64668;BME280;51077;42.716;23.344;2023-07-22T06:03:16;95396.56;;;28.39;47.15
64668;BME280;51077;42.716;23.344;2023-07-22T06:05:41;95408.25;;;28.47;47.19
64668;BME280;51077;42.716;23.344;2023-07-22T06:08:07;95407.28;;;28.57;46.83
64668;BME280;51077;42.716;23.344;2023-07-22T06:10:33;95418.44;;;28.68;46.82
64668;BME280;51077;42.716;23.344;2023-07-22T06:12:59;95418.22;;;28.78;46.65
64668;BME280;51077;42.716;23.344;2023-07-22T06:15:24;95420.06;;;28.87;46.51
64668;BME280;51077;42.716;23.344;2023-07-22T06:17:50;95423.16;;;28.93;46.26
64668;BME280;51077;42.716;23.344;2023-07-22T06:20:15;95426.50;;;29.03;46.08
64668;BME280;51077;42.716;23.344;2023-07-22T06:22:40;95422.59;;;29.11;46.11
64668;BME280;51077;42.716;23.344;2023-07-22T06:25:06;95427.28;;;29.20;45.76
64668;BME280;51077;42.716;23.344;2023-07-22T06:27:33;95431.94;;;29.29;45.65
64668;BME280;51077;42.716;23.344;2023-07-22T06:29:58;95430.88;;;29.36;45.62
64668;BME280;51077;42.716;23.344;2023-07-22T06:32:23;95432.69;;;29.45;45.52
64668;BME280;51077;42.716;23.344;2023-07-22T06:34:49;95432.25;;;29.51;45.26
64668;BME280;51077;42.716;23.344;2023-07-22T06:37:14;95434.84;;;29.61;45.24
64668;BME280;51077;42.716;23.344;2023-07-22T06:39:40;95439.41;;;29.68;44.74
64668;BME280;51077;42.716;23.344;2023-07-22T06:42:05;95439.03;;;29.75;44.83
64668;BME280;51077;42.716;23.344;2023-07-22T06:44:31;95445.13;;;29.86;44.72
64668;BME280;51077;42.716;23.344;2023-07-22T06:46:56;95443.41;;;29.94;44.51
64668;BME280;51077;42.716;23.344;2023-07-22T06:49:22;95431.72;;;30.02;44.42
64668;BME280;51077;42.716;23.344;2023-07-22T06:51:47;95434.25;;;30.12;44.18
64668;BME280;51077;42.716;23.344;2023-07-22T06:54:13;95422.59;;;30.19;44.09
64668;BME280;51077;42.716;23.344;2023-07-22T06:56:38;95425.13;;;30.29;43.58
64668;BME280;51077;42.716;23.344;2023-07-22T06:59:04;95424.81;;;30.39;43.34
64668;BME280;51077;42.716;23.344;2023-07-22T07:01:29;95419.59;;;30.49;43.58
64668;BME280;51077;42.716;23.344;2023-07-22T07:03:55;95423.50;;;30.58;42.98
64668;BME280;51077;42.716;23.344;2023-07-22T07:06:20;95421.78;;;30.68;42.63
64668;BME280;51077;42.716;23.344;2023-07-22T07:08:45;95425.16;;;30.81;42.80
64668;BME280;51077;42.716;23.344;2023-07-22T07:11:11;95417.81;;;30.91;42.49
64668;BME280;51077;42.716;23.344;2023-07-22T07:13:36;95418.28;;;31.03;41.85
64668;BME280;51077;42.716;23.344;2023-07-22T07:16:21;95416.56;;;31.14;41.55
64668;BME280;51077;42.716;23.344;2023-07-22T07:18:48;95411.84;;;31.21;41.16
64668;BME280;51077;42.716;23.344;2023-07-22T07:21:14;95414.47;;;31.33;40.78
64668;BME280;51077;42.716;23.344;2023-07-22T07:23:39;95405.72;;;31.44;40.69
64668;BME280;51077;42.716;23.344;2023-07-22T07:26:04;95409.63;;;31.55;40.71
64668;BME280;51077;42.716;23.344;2023-07-22T07:28:30;95407.31;;;31.69;40.59
64668;BME280;51077;42.716;23.344;2023-07-22T07:30:55;95402.75;;;31.80;39.92
64668;BME280;51077;42.716;23.344;2023-07-22T07:33:21;95399.66;;;31.92;39.43
64668;BME280;51077;42.716;23.344;2023-07-22T07:35:46;95404.25;;;32.01;39.12
64668;BME280;51077;42.716;23.344;2023-07-22T07:38:12;95399.72;;;32.14;39.10
64668;BME280;51077;42.716;23.344;2023-07-22T07:40:37;95393.09;;;32.27;38.96
64668;BME280;51077;42.716;23.344;2023-07-22T07:43:03;95394.97;;;32.40;38.39
64668;BME280;51077;42.716;23.344;2023-07-22T07:45:28;95388.38;;;32.56;38.50
64668;BME280;51077;42.716;23.344;2023-07-22T07:47:54;95396.00;;;32.71;38.17
64668;BME280;51077;42.716;23.344;2023-07-22T07:50:19;95388.66;;;32.86;37.76
64668;BME280;51077;42.716;23.344;2023-07-22T07:52:45;95397.78;;;33.04;37.58
64668;BME280;51077;42.716;23.344;2023-07-22T07:55:10;95385.47;;;33.19;37.01
64668;BME280;51077;42.716;23.344;2023-07-22T07:57:36;95392.38;;;33.36;36.64
64668;BME280;51077;42.716;23.344;2023-07-22T08:00:02;95382.16;;;33.51;36.48
64668;BME280;51077;42.716;23.344;2023-07-22T08:02:28;95391.91;;;33.68;36.34
64668;BME280;51077;42.716;23.344;2023-07-22T08:04:53;95380.75;;;33.76;36.17
64668;BME280;51077;42.716;23.344;2023-07-22T08:07:19;95378.00;;;33.80;35.59
64668;BME280;51077;42.716;23.344;2023-07-22T08:09:47;95378.16;;;33.86;35.68
64668;BME280;51077;42.716;23.344;2023-07-22T08:12:14;95377.44;;;34.10;35.40
64668;BME280;51077;42.716;23.344;2023-07-22T08:14:39;95378.59;;;34.26;34.99
64668;BME280;51077;42.716;23.344;2023-07-22T08:17:05;95385.94;;;34.36;34.81
64668;BME280;51077;42.716;23.344;2023-07-22T08:19:30;95384.88;;;34.49;34.65
64668;BME280;51077;42.716;23.344;2023-07-22T08:21:56;95392.19;;;34.56;34.22
64668;BME280;51077;42.716;23.344;2023-07-22T08:24:21;95388.59;;;34.56;34.30
64668;BME280;51077;42.716;23.344;2023-07-22T08:26:47;95377.38;;;34.62;34.33
64668;BME280;51077;42.716;23.344;2023-07-22T08:29:12;95375.91;;;34.61;33.71
64668;BME280;51077;42.716;23.344;2023-07-22T08:31:37;95385.09;;;34.57;34.10
64668;BME280;51077;42.716;23.344;2023-07-22T08:34:03;95365.41;;;34.69;33.90
64668;BME280;51077;42.716;23.344;2023-07-22T08:36:28;95366.41;;;34.80;33.66
64668;BME280;51077;42.716;23.344;2023-07-22T08:38:54;95361.88;;;34.99;33.41
64668;BME280;51077;42.716;23.344;2023-07-22T08:41:19;95361.56;;;35.17;32.88
64668;BME280;51077;42.716;23.344;2023-07-22T08:43:48;95357.53;;;35.28;33.18
64668;BME280;51077;42.716;23.344;2023-07-22T08:46:15;95347.66;;;35.33;32.74
64668;BME280;51077;42.716;23.344;2023-07-22T08:48:46;95338.56;;;35.41;32.86
64668;BME280;51077;42.716;23.344;2023-07-22T08:51:16;95336.50;;;35.45;32.67
64668;BME280;51077;42.716;23.344;2023-07-22T08:53:45;95329.53;;;35.53;32.29
64668;BME280;51077;42.716;23.344;2023-07-22T08:56:12;95338.94;;;35.57;31.98
64668;BME280;51077;42.716;23.344;2023-07-22T08:58:38;95324.06;;;35.65;32.58
64668;BME280;51077;42.716;23.344;2023-07-22T09:01:05;95324.22;;;35.73;32.13
64668;BME280;51077;42.716;23.344;2023-07-22T09:03:31;95322.47;;;35.92;31.48
64668;BME280;51077;42.716;23.344;2023-07-22T09:05:57;95320.63;;;36.09;31.38
64668;BME280;51077;42.716;23.344;2023-07-22T09:08:22;95321.50;;;36.17;31.78
64668;BME280;51077;42.716;23.344;2023-07-22T09:10:48;95319.66;;;36.34;31.15
64668;BME280;51077;42.716;23.344;2023-07-22T09:13:14;95321.34;;;36.47;31.24
64668;BME280;51077;42.716;23.344;2023-07-22T09:15:40;95312.88;;;36.54;31.01
64668;BME280;51077;42.716;23.344;2023-07-22T09:18:06;95321.59;;;36.62;31.13
64668;BME280;51077;42.716;23.344;2023-07-22T09:20:32;95316.81;;;36.77;30.75
64668;BME280;51077;42.716;23.344;2023-07-22T09:22:58;95312.72;;;36.90;31.00
64668;BME280;51077;42.716;23.344;2023-07-22T09:25:26;95308.63;;;37.01;30.74
64668;BME280;51077;42.716;23.344;2023-07-22T09:27:54;95300.97;;;37.18;29.93
64668;BME280;51077;42.716;23.344;2023-07-22T09:30:22;95302.63;;;37.35;30.30
64668;BME280;51077;42.716;23.344;2023-07-22T09:32:48;95305.00;;;37.49;30.09
64668;BME280;51077;42.716;23.344;2023-07-22T09:35:14;95308.88;;;37.78;29.05
64668;BME280;51077;42.716;23.344;2023-07-22T09:37:39;95300.28;;;37.76;29.21
64668;BME280;51077;42.716;23.344;2023-07-22T09:40:26;95298.00;;;37.64;29.10
64668;BME280;51077;42.716;23.344;2023-07-22T09:42:57;95288.84;;;37.78;29.64
64668;BME280;51077;42.716;23.344;2023-07-22T09:45:29;95279.59;;;37.84;29.21
64668;BME280;51077;42.716;23.344;2023-07-22T09:47:55;95290.47;;;37.95;28.67
64668;BME280;51077;42.716;23.344;2023-07-22T09:50:22;95282.63;;;37.98;28.46
64668;BME280;51077;42.716;23.344;2023-07-22T09:52:52;95278.50;;;38.15;28.19
64668;BME280;51077;42.716;23.344;2023-07-22T09:55:21;95277.81;;;38.19;28.25
64668;BME280;51077;42.716;23.344;2023-07-22T09:57:50;95275.81;;;38.32;27.63
64668;BME280;51077;42.716;23.344;2023-07-22T10:00:16;95278.03;;;38.41;27.87
64668;BME280;51077;42.716;23.344;2023-07-22T10:02:45;95282.44;;;38.57;27.48
64668;BME280;51077;42.716;23.344;2023-07-22T10:05:16;95273.22;;;38.66;27.46
64668;BME280;51077;42.716;23.344;2023-07-22T10:07:53;95271.06;;;38.67;27.76
64668;BME280;51077;42.716;23.344;2023-07-22T10:10:23;95266.91;;;38.86;27.58
64668;BME280;51077;42.716;23.344;2023-07-22T10:12:49;95266.22;;;38.90;27.54
64668;BME280;51077;42.716;23.344;2023-07-22T10:15:16;95267.03;;;39.07;27.67
64668;BME280;51077;42.716;23.344;2023-07-22T10:17:43;95255.56;;;39.13;27.39
64668;BME280;51077;42.716;23.344;2023-07-22T10:20:10;95267.19;;;39.35;27.35
64668;BME280;51077;42.716;23.344;2023-07-22T10:22:44;95260.09;;;39.55;26.72
64668;BME280;51077;42.716;23.344;2023-07-22T10:25:14;95258.66;;;39.64;26.60
64668;BME280;51077;42.716;23.344;2023-07-22T10:27:42;95255.88;;;39.80;25.88
64668;BME280;51077;42.716;23.344;2023-07-22T10:30:10;95260.22;;;39.93;25.21
64668;BME280;51077;42.716;23.344;2023-07-22T10:32:37;95256.69;;;40.24;24.97
64668;BME280;51077;42.716;23.344;2023-07-22T10:35:04;95250.19;;;40.27;24.41
64668;BME280;51077;42.716;23.344;2023-07-22T10:37:33;95250.19;;;40.43;24.35
64668;BME280;51077;42.716;23.344;2023-07-22T10:39:59;95239.41;;;40.52;23.80
64668;BME280;51077;42.716;23.344;2023-07-22T10:42:26;95246.63;;;40.61;23.57
64668;BME280;51077;42.716;23.344;2023-07-22T10:44:51;95244.41;;;41.01;22.24
64668;BME280;51077;42.716;23.344;2023-07-22T10:47:33;95242.97;;;40.93;21.34
64668;BME280;51077;42.716;23.344;2023-07-22T10:50:06;95232.91;;;40.84;21.72
64668;BME280;51077;42.716;23.344;2023-07-22T10:52:43;95232.22;;;40.74;21.63
64668;BME280;51077;42.716;23.344;2023-07-22T10:55:19;95234.38;;;40.65;21.89
64668;BME280;51077;42.716;23.344;2023-07-22T10:57:49;95237.22;;;40.75;22.10
64668;BME280;51077;42.716;23.344;2023-07-22T11:00:20;95227.88;;;40.93;21.86
64668;BME280;51077;42.716;23.344;2023-07-22T11:02:58;95233.63;;;40.87;21.87
64668;BME280;51077;42.716;23.344;2023-07-22T11:05:52;95221.41;;;40.82;21.92
64668;BME280;51077;42.716;23.344;2023-07-22T11:08:39;95222.78;;;41.10;21.35
64668;BME280;51077;42.716;23.344;2023-07-22T11:11:05;95219.22;;;41.03;21.71
64668;BME280;51077;42.716;23.344;2023-07-22T11:13:37;95219.94;;;41.02;21.13
64668;BME280;51077;42.716;23.344;2023-07-22T11:16:03;95215.63;;;41.03;21.63
64668;BME280;51077;42.716;23.344;2023-07-22T11:18:41;95204.78;;;41.09;21.50
64668;BME280;51077;42.716;23.344;2023-07-22T11:21:11;95222.81;;;41.06;21.48
64668;BME280;51077;42.716;23.344;2023-07-22T11:23:37;95214.84;;;41.16;21.46
64668;BME280;51077;42.716;23.344;2023-07-22T11:26:05;95214.84;;;41.16;21.64
64668;BME280;51077;42.716;23.344;2023-07-22T11:28:31;95209.06;;;41.18;21.29
64668;BME280;51077;42.716;23.344;2023-07-22T11:30:57;95214.19;;;40.87;21.49
64668;BME280;51077;42.716;23.344;2023-07-22T11:33:24;95215.69;;;40.43;21.94
64668;BME280;51077;42.716;23.344;2023-07-22T11:35:49;95206.31;;;40.04;22.51
64668;BME280;51077;42.716;23.344;2023-07-22T11:38:15;95201.28;;;40.09;22.30
64668;BME280;51077;42.716;23.344;2023-07-22T11:40:41;95184.06;;;40.21;22.43
64668;BME280;51077;42.716;23.344;2023-07-22T11:43:06;95196.28;;;40.24;22.21
64668;BME280;51077;42.716;23.344;2023-07-22T11:45:32;95187.63;;;40.40;21.98
64668;BME280;51077;42.716;23.344;2023-07-22T11:47:58;95183.34;;;40.35;22.35
64668;BME280;51077;42.716;23.344;2023-07-22T11:50:33;95181.16;;;40.60;21.98
64668;BME280;51077;42.716;23.344;2023-07-22T11:52:59;95172.50;;;40.76;22.35
64668;BME280;51077;42.716;23.344;2023-07-22T11:55:25;95176.75;;;40.93;21.93
64668;BME280;51077;42.716;23.344;2023-07-22T11:57:54;95182.41;;;41.22;21.89
64668;BME280;51077;42.716;23.344;2023-07-22T12:00:20;95180.91;;;41.37;21.81
64668;BME280;51077;42.716;23.344;2023-07-22T12:02:46;95183.84;;;41.25;21.67
64668;BME280;51077;42.716;23.344;2023-07-22T12:05:19;95170.28;;;40.93;21.73
64668;BME280;51077;42.716;23.344;2023-07-22T12:07:45;95171.84;;;40.37;22.40
64668;BME280;51077;42.716;23.344;2023-07-22T12:10:10;95178.31;;;40.37;22.95
64668;BME280;51077;42.716;23.344;2023-07-22T12:15:16;95166.78;;;40.50;22.77
64668;BME280;51077;42.716;23.344;2023-07-22T12:17:48;95158.88;;;40.60;22.40
64668;BME280;51077;42.716;23.344;2023-07-22T12:20:16;95159.56;;;40.71;22.68
64668;BME280;51077;42.716;23.344;2023-07-22T12:22:42;95164.56;;;40.75;22.64
64668;BME280;51077;42.716;23.344;2023-07-22T12:25:08;95161.00;;;40.72;22.38
64668;BME280;51077;42.716;23.344;2023-07-22T12:27:34;95158.09;;;40.82;22.35
64668;BME280;51077;42.716;23.344;2023-07-22T12:29:59;95158.09;;;40.80;22.74
64668;BME280;51077;42.716;23.344;2023-07-22T12:32:25;95148.00;;;40.89;22.77
64668;BME280;51077;42.716;23.344;2023-07-22T12:34:50;95154.47;;;40.86;22.88
64668;BME280;51077;42.716;23.344;2023-07-22T12:37:15;95155.25;;;40.62;22.88
64668;BME280;51077;42.716;23.344;2023-07-22T12:39:41;95159.59;;;40.63;22.87
64668;BME280;51077;42.716;23.344;2023-07-22T12:42:07;95149.47;;;40.78;22.97
64668;BME280;51077;42.716;23.344;2023-07-22T12:44:33;95137.91;;;40.90;22.71
64668;BME280;51077;42.716;23.344;2023-07-22T12:46:58;95139.97;;;41.16;22.74
64668;BME280;51077;42.716;23.344;2023-07-22T12:49:24;95138.44;;;41.32;22.19